Normandy, Tennessee
Current Conditions -  °F | °C
As of 6:35 AM on Sunday 23 Nov 2014 (Local Time) from KTHA Reporting Station
Broken Clouds Broken Clouds  
Wind Chill: 12°   Ceiling: 6000
Heat Index: 12°   Visibility: 10mi
Dew Point:   Wind: 14mph
Humidity: 77%   Direction: 150°SSE
Pressure: 29.93"   Gusts: NA
Location:  35.45°N, 86.26°W
Report Text: KTHA 231235Z AUTO 15012KT 10SM SCT035 BKN060 12/08 A2993 RMK
Loading
Personal Weather Stations






























Interactive Weather Map New forecast layout! Learn more

10-Day Weather Forecast

Advertisements
Track Severe Weather on mobile